首页
METAR-TAF:

METAR-TAF

机场 :

Gökçeada, 土耳其

纬度: 40-12-04N, 经度: 25-52-56E, 海拔: 22米

当前天气观测

该预报发布于36分钟前的05:50 UTC
风速7节,风向多变
温度 26°C
湿度 61%
气压 1006 hPa
能见度10公里或以上
散云层高于3000英尺
多云层高于10000英尺

METAR: LTFK 180550Z VRB07KT 9999 SCT030 BKN100 26/18 Q1006

时间: 09:26 (06:26 UTC)

预报

该预报发布于1小时和46分钟前的04:40 UTC
预报有效从18日的 06点(UTC)到 18日的 15点(UTC)
风速2节,风向多变
能见度10公里或以上
散云层高于3000英尺

TAF: LTFK 180440Z 1806/1815 VRB02KT 9999 SCT030

超过4000个机场的气象观测和天气预报(METAR&TAF报告)。

可查询的气象台以黄色和红色小点在地图上表示。

将鼠标移到小点上方,可查看气象台名称。

然后点击查看天气观测和预报。

如需切换地图:点击带黑十字的绿色按钮放大地图;点击带横线的绿色按钮缩小地图;或者点击绿色箭头查看邻近地区的地图。


METAR-TAF: